createdAt,value
2019-05-26T00:01:23.733Z,98868.91
2019-05-26T00:04:37.445Z,98868.38
2019-05-26T00:07:51.272Z,98863.99
2019-05-26T00:11:04.764Z,98860.80
2019-05-26T00:14:18.268Z,98864.35
2019-05-26T00:17:31.807Z,98853.94
2019-05-26T00:20:45.397Z,98858.66
2019-05-26T00:23:59.007Z,98851.48
2019-05-26T00:27:12.497Z,98850.25
2019-05-26T00:30:26.110Z,98851.22
2019-05-26T00:33:39.603Z,98848.02
2019-05-26T00:36:53.454Z,98849.19
2019-05-26T00:40:09.174Z,98842.67
2019-05-26T00:43:22.879Z,98839.45
2019-05-26T00:46:36.527Z,98838.52
2019-05-26T00:49:50.117Z,98843.46
2019-05-26T00:53:04.225Z,98851.14
2019-05-26T00:56:17.852Z,98855.99
2019-05-26T00:59:31.552Z,98858.22
2019-05-26T01:02:45.470Z,98855.71
2019-05-26T01:05:59.352Z,98858.63
2019-05-26T01:09:12.941Z,98859.42
2019-05-26T01:12:26.432Z,98858.02
2019-05-26T01:15:39.938Z,98862.69
2019-05-26T01:18:53.440Z,98859.91
2019-05-26T01:22:06.957Z,98868.69
2019-05-26T01:25:20.868Z,98868.96
2019-05-26T01:28:34.357Z,98874.38
2019-05-26T01:31:48.373Z,98875.77
2019-05-26T01:35:02.083Z,98877.34
2019-05-26T01:38:23.890Z,98877.12
2019-05-26T01:41:31.892Z,98872.05
2019-05-26T01:44:45.384Z,98871.70
2019-05-26T01:47:58.888Z,98869.38
2019-05-26T01:51:12.643Z,98877.92
2019-05-26T01:54:26.280Z,98869.16
2019-05-26T01:57:39.707Z,98874.96
2019-05-26T02:00:53.486Z,98878.20
2019-05-26T02:04:06.970Z,98876.73
2019-05-26T02:07:20.457Z,98877.53
2019-05-26T02:10:33.952Z,98878.59
2019-05-26T02:13:47.520Z,98874.12
2019-05-26T02:17:01.453Z,98874.52
2019-05-26T02:20:17.010Z,98886.60
2019-05-26T02:23:30.488Z,98885.32
2019-05-26T02:26:43.996Z,98883.81
2019-05-26T02:29:57.474Z,98882.03
2019-05-26T02:33:11.068Z,98881.58
2019-05-26T02:36:25.091Z,98883.88
2019-05-26T02:39:38.572Z,98877.23
2019-05-26T02:42:52.258Z,98881.34
2019-05-26T02:46:06.129Z,98875.09
2019-05-26T02:49:19.624Z,98883.34
2019-05-26T02:52:33.108Z,98874.77
2019-05-26T02:55:47.076Z,98874.00
2019-05-26T02:59:00.660Z,98872.23
2019-05-26T03:02:14.554Z,98872.52
2019-05-26T03:05:28.472Z,98874.31
2019-05-26T03:08:44.242Z,98869.34
2019-05-26T03:11:59.413Z,98865.39
2019-05-26T03:15:14.801Z,98865.89
2019-05-26T03:18:31.166Z,98869.23
2019-05-26T03:21:47.635Z,98863.61
2019-05-26T03:25:03.409Z,98870.69
2019-05-26T03:28:16.920Z,98871.84
2019-05-26T03:31:30.720Z,98878.38
2019-05-26T03:34:44.244Z,98878.24
2019-05-26T03:37:57.716Z,98875.80
2019-05-26T03:41:11.209Z,98875.82
2019-05-26T03:44:24.705Z,98880.31
2019-05-26T03:47:38.620Z,98879.82
2019-05-26T03:50:52.105Z,98874.18
2019-05-26T03:54:05.794Z,98872.11
2019-05-26T03:57:19.281Z,98872.87
2019-05-26T04:00:33.178Z,98871.84
2019-05-26T04:03:46.690Z,98872.08
2019-05-26T04:07:00.162Z,98879.41
2019-05-26T04:10:14.140Z,98869.16
2019-05-26T04:13:27.933Z,98877.73
2019-05-26T04:16:41.423Z,98873.61
2019-05-26T04:19:54.922Z,98874.89
2019-05-26T04:23:08.416Z,98877.08
2019-05-26T04:26:22.001Z,98879.22
2019-05-26T04:29:35.795Z,98880.14
2019-05-26T04:32:49.406Z,98876.93
2019-05-26T04:36:03.298Z,98877.66
2019-05-26T04:39:17.143Z,98874.48
2019-05-26T04:42:30.616Z,98877.51
2019-05-26T04:45:44.126Z,98880.67
2019-05-26T04:48:57.618Z,98879.89
2019-05-26T04:52:11.232Z,98878.71
2019-05-26T04:55:24.732Z,98883.16
2019-05-26T04:58:38.323Z,98883.52
2019-05-26T05:01:51.807Z,98891.05
2019-05-26T05:05:05.644Z,98888.98
2019-05-26T05:08:19.169Z,98893.28
2019-05-26T05:11:33.294Z,98887.63
2019-05-26T05:16:38.347Z,98888.77
2019-05-26T05:19:52.060Z,98887.89
2019-05-26T05:23:05.793Z,98890.77
2019-05-26T05:26:19.701Z,98888.23
2019-05-26T05:29:33.573Z,98883.38
2019-05-26T05:32:47.341Z,98886.87
2019-05-26T05:36:00.933Z,98884.44
2019-05-26T05:39:14.536Z,98875.45
2019-05-26T05:42:28.277Z,98882.04
2019-05-26T05:45:41.875Z,98880.87
2019-05-26T05:48:55.618Z,98890.66
2019-05-26T05:52:09.200Z,98883.17
2019-05-26T05:55:22.681Z,98881.27
2019-05-26T05:58:36.166Z,98868.69
2019-05-26T06:01:49.802Z,98864.63
2019-05-26T06:05:04.100Z,98868.20
2019-05-26T06:08:17.753Z,98857.80
2019-05-26T06:11:31.406Z,98857.26
2019-05-26T06:14:45.839Z,98857.97
2019-05-26T06:17:59.674Z,98852.77
2019-05-26T06:21:13.188Z,98852.55
2019-05-26T06:24:26.780Z,98854.19
2019-05-26T06:27:40.281Z,98855.19
2019-05-26T06:30:54.246Z,98855.23
2019-05-26T06:34:07.779Z,98850.63
2019-05-26T06:37:21.427Z,98847.25
2019-05-26T06:40:34.956Z,98849.78
2019-05-26T06:43:48.722Z,98847.43
2019-05-26T06:47:02.337Z,98852.55
2019-05-26T06:50:16.315Z,98848.02
2019-05-26T06:53:29.834Z,98844.26
2019-05-26T06:56:43.319Z,98845.81
2019-05-26T06:59:56.827Z,98844.22
2019-05-26T07:03:10.304Z,98846.55
2019-05-26T07:06:23.926Z,98858.95
2019-05-26T07:09:37.401Z,98856.29
2019-05-26T07:12:50.896Z,98858.34
2019-05-26T07:16:04.434Z,98857.74
2019-05-26T07:19:17.921Z,98855.20
2019-05-26T07:22:31.433Z,98855.77
2019-05-26T07:25:44.930Z,98863.23
2019-05-26T07:28:58.404Z,98858.27
2019-05-26T07:32:12.194Z,98859.48
2019-05-26T07:35:25.921Z,98855.40
2019-05-26T07:38:39.834Z,98858.13
2019-05-26T07:42:08.778Z,98867.94
2019-05-26T07:45:10.026Z,98864.09
2019-05-26T07:48:23.460Z,98864.63
2019-05-26T07:51:37.067Z,98859.55
2019-05-26T07:54:50.542Z,98857.66
2019-05-26T07:58:04.249Z,98855.23
2019-05-26T08:01:17.849Z,98845.78
2019-05-26T08:04:31.625Z,98846.03
2019-05-26T08:07:45.406Z,98851.41
2019-05-26T08:10:58.913Z,98853.79
2019-05-26T08:14:12.510Z,98850.23
2019-05-26T08:17:26.585Z,98847.03
2019-05-26T08:20:42.689Z,98847.77
2019-05-26T08:23:56.179Z,98845.19
2019-05-26T08:27:09.718Z,98848.86
2019-05-26T08:30:23.336Z,98841.17
2019-05-26T08:33:36.884Z,98848.55
2019-05-26T08:36:50.309Z,98834.84
2019-05-26T08:40:19.171Z,98840.05
2019-05-26T08:43:32.673Z,98836.64
2019-05-26T08:46:46.271Z,98830.25
2019-05-26T08:49:59.775Z,98824.02
2019-05-26T08:53:13.363Z,98822.61
2019-05-26T08:56:26.973Z,98814.97
2019-05-26T08:59:40.802Z,98817.50
2019-05-26T09:02:54.417Z,98821.58
2019-05-26T09:06:08.171Z,98819.76
2019-05-26T09:09:21.789Z,98815.31
2019-05-26T09:12:35.303Z,98817.05
2019-05-26T09:15:48.799Z,98812.64
2019-05-26T09:19:02.541Z,98812.42
2019-05-26T09:22:16.029Z,98810.73
2019-05-26T09:25:29.532Z,98807.84
2019-05-26T09:28:43.178Z,98807.97
2019-05-26T09:31:56.702Z,98798.34
2019-05-26T09:35:10.547Z,98797.30
2019-05-26T09:38:24.238Z,98795.42
2019-05-26T09:41:37.769Z,98798.27
2019-05-26T09:44:51.238Z,98791.78
2019-05-26T09:48:04.733Z,98789.48
2019-05-26T09:51:18.354Z,98794.33
2019-05-26T09:54:31.877Z,98784.09
2019-05-26T09:57:45.373Z,98775.38
2019-05-26T10:00:58.985Z,98780.93
2019-05-26T10:04:12.718Z,98781.48
2019-05-26T10:07:26.653Z,98783.44
2019-05-26T10:10:40.274Z,98779.33
2019-05-26T10:13:53.795Z,98779.95
2019-05-26T10:17:07.407Z,98786.89
2019-05-26T10:20:21.125Z,98777.55
2019-05-26T10:23:34.894Z,98778.61
2019-05-26T10:26:48.557Z,98769.80
2019-05-26T10:30:05.456Z,98756.64
2019-05-26T10:33:19.202Z,98752.74
2019-05-26T10:36:32.850Z,98752.11
2019-05-26T10:39:46.385Z,98757.48
2019-05-26T10:43:00.231Z,98746.03
2019-05-26T10:46:14.026Z,98738.02
2019-05-26T10:49:27.667Z,98749.42
2019-05-26T10:52:41.297Z,98742.03
2019-05-26T10:55:54.831Z,98730.83
2019-05-26T10:59:08.748Z,98735.06
2019-05-26T11:02:22.394Z,98727.25
2019-05-26T11:05:35.902Z,98728.87
2019-05-26T11:08:49.438Z,98723.65
2019-05-26T11:12:03.366Z,98723.38
2019-05-26T11:15:17.645Z,98727.52
2019-05-26T11:18:31.184Z,98717.12
2019-05-26T11:21:44.721Z,98693.05
2019-05-26T11:24:58.370Z,98699.56
2019-05-26T11:28:12.277Z,98701.70
2019-05-26T11:31:25.829Z,98689.70
2019-05-26T11:34:39.350Z,98677.64
2019-05-26T11:37:53.019Z,98676.81
2019-05-26T11:41:06.677Z,98676.73
2019-05-26T11:44:20.323Z,98672.75
2019-05-26T11:47:34.053Z,98674.81
2019-05-26T11:50:47.728Z,98679.76
2019-05-26T11:54:01.268Z,98670.62
2019-05-26T11:57:15.266Z,98664.81
2019-05-26T12:00:29.857Z,98660.23
2019-05-26T12:03:43.689Z,98671.53
2019-05-26T12:06:57.243Z,98666.48
2019-05-26T12:10:14.198Z,98663.43
2019-05-26T12:16:39.206Z,98650.56
2019-05-26T12:19:52.799Z,98645.53
2019-05-26T12:23:06.430Z,98625.17
2019-05-26T12:26:20.018Z,98634.95
2019-05-26T12:29:33.573Z,98630.94
2019-05-26T12:32:47.135Z,98628.42
2019-05-26T12:36:01.057Z,98620.67
2019-05-26T12:39:14.867Z,98619.63
2019-05-26T12:42:28.395Z,98614.30
2019-05-26T12:45:41.865Z,98622.86
2019-05-26T12:48:55.357Z,98614.97
2019-05-26T12:52:09.190Z,98611.30
2019-05-26T12:55:23.439Z,98614.05
2019-05-26T12:58:37.381Z,98607.19
2019-05-26T13:01:51.028Z,98603.45
2019-05-26T13:05:05.253Z,98608.51
2019-05-26T13:08:18.761Z,98590.55
2019-05-26T13:11:32.579Z,98591.39
2019-05-26T13:14:46.375Z,98587.12
2019-05-26T13:17:59.877Z,98604.26
2019-05-26T13:21:13.370Z,98593.36
2019-05-26T13:24:26.926Z,98583.45
2019-05-26T13:27:40.655Z,98582.16
2019-05-26T13:30:54.295Z,98572.39
2019-05-26T13:34:08.617Z,98581.11
2019-05-26T13:37:22.580Z,98572.16
2019-05-26T13:40:36.330Z,98563.04
2019-05-26T13:43:49.885Z,98565.55
2019-05-26T13:47:03.504Z,98569.44
2019-05-26T13:50:18.225Z,98556.84
2019-05-26T13:53:31.909Z,98549.34
2019-05-26T13:56:45.480Z,98570.36
2019-05-26T13:59:59.184Z,98570.33
2019-05-26T14:03:13.562Z,98565.16
2019-05-26T14:06:27.397Z,98557.09
2019-05-26T14:09:41.427Z,98565.56
2019-05-26T14:12:54.955Z,98557.81
2019-05-26T14:16:09.460Z,98554.13
2019-05-26T14:19:28.629Z,98553.48
2019-05-26T14:22:42.527Z,98556.36
2019-05-26T14:25:56.045Z,98542.82
2019-05-26T14:29:09.576Z,98539.37
2019-05-26T14:32:23.196Z,98543.87
2019-05-26T14:35:37.214Z,98535.97
2019-05-26T14:38:51.110Z,98538.56
2019-05-26T14:42:04.869Z,98542.34
2019-05-26T14:45:19.200Z,98545.80
2019-05-26T14:48:32.804Z,98545.55
2019-05-26T14:51:46.349Z,98537.68
2019-05-26T14:55:00.416Z,98527.05
2019-05-26T14:58:16.425Z,98524.83
2019-05-26T15:01:29.854Z,98523.59
2019-05-26T15:04:43.391Z,98514.91
2019-05-26T15:07:57.018Z,98517.31
2019-05-26T15:11:10.549Z,98510.10
2019-05-26T15:14:24.241Z,98519.16
2019-05-26T15:17:37.889Z,98514.52
2019-05-26T15:20:51.642Z,98504.70
2019-05-26T15:24:05.354Z,98505.98
2019-05-26T15:27:19.130Z,98510.19
2019-05-26T15:30:32.755Z,98520.31
2019-05-26T15:33:46.247Z,98503.40
2019-05-26T15:36:59.742Z,98500.70
2019-05-26T15:40:14.392Z,98499.83
2019-05-26T15:43:29.332Z,98495.20
2019-05-26T15:46:42.838Z,98492.63
2019-05-26T15:49:56.359Z,98494.32
2019-05-26T15:53:10.095Z,98497.45
2019-05-26T15:56:23.687Z,98494.11
2019-05-26T15:59:37.376Z,98505.17
2019-05-26T16:02:50.987Z,98491.73
2019-05-26T16:06:05.389Z,98488.66
2019-05-26T16:09:18.918Z,98476.12
2019-05-26T16:12:32.539Z,98474.05
2019-05-26T16:15:46.185Z,98469.35
2019-05-26T16:18:59.698Z,98461.63
2019-05-26T16:22:13.461Z,98453.17
2019-05-26T16:25:27.078Z,98454.47
2019-05-26T16:28:40.759Z,98457.61
2019-05-26T16:31:54.436Z,98464.92
2019-05-26T16:35:08.613Z,98466.11
2019-05-26T16:38:22.254Z,98455.72
2019-05-26T16:41:35.926Z,98454.44
2019-05-26T16:44:49.520Z,98452.01
2019-05-26T16:48:03.240Z,98444.58
2019-05-26T16:51:17.504Z,98445.87
2019-05-26T16:54:31.131Z,98446.59
2019-05-26T16:57:44.870Z,98444.59
2019-05-26T17:00:58.511Z,98439.20
2019-05-26T17:04:12.147Z,98443.58
2019-05-26T17:07:26.408Z,98431.80
2019-05-26T17:10:40.390Z,98433.84
2019-05-26T17:13:54.066Z,98437.06
2019-05-26T17:17:14.587Z,98439.66
2019-05-26T17:20:23.389Z,98444.34
2019-05-26T17:23:36.937Z,98435.37
2019-05-26T17:26:50.584Z,98428.36
2019-05-26T17:30:05.335Z,98431.92
2019-05-26T17:33:19.039Z,98430.99
2019-05-26T17:36:32.820Z,98426.84
2019-05-26T17:39:46.740Z,98437.69
2019-05-26T17:43:00.379Z,98437.43
2019-05-26T17:46:15.293Z,98436.78
2019-05-26T17:49:28.960Z,98447.64
2019-05-26T17:52:42.502Z,98444.36
2019-05-26T17:55:56.360Z,98443.11
2019-05-26T17:59:09.959Z,98450.31
2019-05-26T18:02:23.901Z,98457.11
2019-05-26T18:05:37.386Z,98438.11
2019-05-26T18:08:50.974Z,98433.13
2019-05-26T18:12:04.760Z,98425.88
2019-05-26T18:15:18.489Z,98431.03
2019-05-26T18:18:32.093Z,98433.14
2019-05-26T18:21:45.597Z,98438.52
2019-05-26T18:24:59.628Z,98440.61
2019-05-26T18:28:13.235Z,98444.87
2019-05-26T18:31:29.081Z,98437.80
2019-05-26T18:34:42.493Z,98444.31
2019-05-26T18:37:56.337Z,98446.41
2019-05-26T18:41:09.849Z,98448.43
2019-05-26T18:44:23.526Z,98442.73
2019-05-26T18:47:37.054Z,98453.07
2019-05-26T18:50:50.683Z,98443.81
2019-05-26T18:54:04.457Z,98437.19
2019-05-26T18:57:18.368Z,98438.77
2019-05-26T19:00:32.504Z,98440.03
2019-05-26T19:03:45.984Z,98442.70
2019-05-26T19:06:59.481Z,98432.79
2019-05-26T19:14:04.950Z,98436.30
2019-05-26T19:17:18.856Z,98440.34
2019-05-26T19:20:32.383Z,98443.31
2019-05-26T19:23:46.021Z,98444.45
2019-05-26T19:26:59.478Z,98442.56
2019-05-26T19:30:13.720Z,98441.29
2019-05-26T19:33:27.336Z,98454.86
2019-05-26T19:36:40.853Z,98455.01
2019-05-26T19:39:54.790Z,98459.92
2019-05-26T19:43:08.291Z,98452.25
2019-05-26T19:46:21.908Z,98453.62
2019-05-26T19:49:35.872Z,98457.78
2019-05-26T19:52:50.137Z,98452.47
2019-05-26T19:56:04.301Z,98450.38
2019-05-26T19:59:18.349Z,98460.17
2019-05-26T20:02:31.836Z,98459.17
2019-05-26T20:05:45.340Z,98457.50
2019-05-26T20:08:58.924Z,98462.33
2019-05-26T20:12:12.566Z,98459.46
2019-05-26T20:15:26.381Z,98462.70
2019-05-26T20:18:39.972Z,98459.67
2019-05-26T20:21:53.986Z,98465.90
2019-05-26T20:25:08.226Z,98458.22
2019-05-26T20:28:21.706Z,98467.12
2019-05-26T20:31:35.210Z,98461.95
2019-05-26T20:34:48.829Z,98466.14
2019-05-26T20:38:02.532Z,98463.54
2019-05-26T20:41:16.061Z,98459.17
2019-05-26T20:44:29.560Z,98460.63
2019-05-26T20:47:43.132Z,98466.80
2019-05-26T20:50:56.966Z,98463.15
2019-05-26T20:54:10.483Z,98459.97
2019-05-26T20:57:24.077Z,98459.46
2019-05-26T21:00:37.569Z,98458.89
2019-05-26T21:03:51.061Z,98454.70
2019-05-26T21:07:05.078Z,98453.72
2019-05-26T21:10:18.731Z,98451.45
2019-05-26T21:16:40.049Z,98445.30
2019-05-26T21:19:53.652Z,98443.23
2019-05-26T21:23:07.144Z,98443.22
2019-05-26T21:26:20.645Z,98443.86
2019-05-26T21:29:34.262Z,98439.36
2019-05-26T21:32:47.834Z,98438.58
2019-05-26T21:36:01.433Z,98436.78
2019-05-26T21:39:14.905Z,98437.50
2019-05-26T21:42:28.403Z,98438.94
2019-05-26T21:45:41.902Z,98435.38
2019-05-26T21:48:55.402Z,98434.49
2019-05-26T21:52:09.189Z,98435.95
2019-05-26T21:55:22.688Z,98430.00
2019-05-26T21:58:36.269Z,98431.60
2019-05-26T22:01:50.124Z,98422.27
2019-05-26T22:05:04.928Z,98425.58
2019-05-26T22:08:18.659Z,98423.88
2019-05-26T22:11:32.174Z,98421.04
2019-05-26T22:14:45.792Z,98415.30
2019-05-26T22:17:59.602Z,98411.75
2019-05-26T22:21:13.303Z,98419.48
2019-05-26T22:24:27.070Z,98415.55
2019-05-26T22:27:40.576Z,98411.58
2019-05-26T22:30:54.060Z,98413.49
2019-05-26T22:34:08.018Z,98407.86
2019-05-26T22:37:21.501Z,98404.61
2019-05-26T22:40:35.003Z,98403.27
2019-05-26T22:43:48.500Z,98399.78
2019-05-26T22:47:02.269Z,98399.52
2019-05-26T22:50:16.053Z,98399.66
2019-05-26T22:53:29.577Z,98395.01
2019-05-26T22:56:43.053Z,98399.83
2019-05-26T22:59:56.553Z,98396.27
2019-05-26T23:03:10.147Z,98401.22
2019-05-26T23:06:23.737Z,98404.73
2019-05-26T23:09:37.238Z,98401.48
2019-05-26T23:12:51.078Z,98399.34
2019-05-26T23:16:04.676Z,98395.20
2019-05-26T23:19:19.932Z,98391.47
2019-05-26T23:22:33.919Z,98390.17
2019-05-26T23:25:47.794Z,98387.63
2019-05-26T23:29:01.294Z,98383.81
2019-05-26T23:32:15.124Z,98383.37
2019-05-26T23:35:28.641Z,98380.58
2019-05-26T23:38:42.556Z,98378.13
2019-05-26T23:41:56.052Z,98382.30
2019-05-26T23:45:11.417Z,98381.81
2019-05-26T23:48:24.999Z,98377.77
2019-05-26T23:51:38.592Z,98376.78
2019-05-26T23:54:52.073Z,98373.52
2019-05-26T23:58:05.674Z,98369.96
